Time;durP1;ratioP1;P1;durP2;ratioP2;P2;SDS_P1;SDS_P2;PMS_P1;PMS_P2;Temp;Humidity;BMP_temperature;BMP_pressure;BME280_temperature;BME280_humidity;BME280_pressure;Samples;Min_cycle;Max_cycle;Signal;HPM_P1;HPM_P2
2021/10/13 00:00:56;;;;;;;6.13;5.05;;;;;;;;;;5073725;28;20036;-56
2021/10/13 00:03:22;;;;;;;8.95;5.28;;;;;;;;;;5074062;28;20066;-57
2021/10/13 00:05:47;;;;;;;6.60;5.10;;;;;;;;;;5073961;28;20041;-57
2021/10/13 00:08:12;;;;;;;7.15;6.03;;;;;;;;;;5073344;28;20101;-57
2021/10/13 00:10:37;;;;;;;7.53;5.85;;;;;;;;;;5073632;28;20115;-57
2021/10/13 00:13:03;;;;;;;6.93;5.82;;;;;;;;;;5074004;28;20066;-56
2021/10/13 00:15:28;;;;;;;8.25;6.28;;;;;;;;;;5073637;28;20024;-58
2021/10/13 00:17:53;;;;;;;8.60;5.88;;;;;;;;;;5074520;28;20032;-58
2021/10/13 00:20:18;;;;;;;7.15;5.50;;;;;;;;;;5073769;28;20036;-56
2021/10/13 00:22:44;;;;;;;8.30;5.75;;;;;;;;;;5073696;28;20025;-58
2021/10/13 00:25:09;;;;;;;5.53;4.55;;;;;;;;;;5070092;28;20082;-58
2021/10/13 00:27:34;;;;;;;8.18;5.28;;;;;;;;;;5072892;28;20017;-58
2021/10/13 00:29:59;;;;;;;7.25;5.38;;;;;;;;;;5073354;28;20009;-56
2021/10/13 00:32:24;;;;;;;8.13;5.47;;;;;;;;;;5073949;28;20091;-57
2021/10/13 00:34:50;;;;;;;6.00;5.40;;;;;;;;;;5084262;28;20047;-57
2021/10/13 00:37:15;;;;;;;7.30;6.03;;;;;;;;;;5078009;28;20021;-57
2021/10/13 00:39:40;;;;;;;8.75;5.55;;;;;;;;;;5073807;28;20033;-57
2021/10/13 00:42:05;;;;;;;9.13;5.32;;;;;;;;;;5073242;28;20143;-57
2021/10/13 00:44:30;;;;;;;7.97;5.20;;;;;;;;;;5071620;28;20489;-57
2021/10/13 00:46:56;;;;;;;7.15;4.75;;;;;;;;;;5073404;28;20036;-58
2021/10/13 00:49:21;;;;;;;9.00;5.05;;;;;;;;;;5073602;28;20020;-57
2021/10/13 00:51:46;;;;;;;6.57;5.05;;;;;;;;;;5072760;28;20047;-56
2021/10/13 00:54:11;;;;;;;6.47;4.63;;;;;;;;;;5072735;28;20453;-58
2021/10/13 00:56:37;;;;;;;6.32;4.65;;;;;;;;;;5069929;28;20020;-59
2021/10/13 00:59:02;;;;;;;5.63;4.70;;;;;;;;;;5073105;28;20032;-58
2021/10/13 01:01:50;;;;;;;9.43;5.72;;;;;;;;;;5072628;28;20025;-58
2021/10/13 01:04:34;;;;;;;5.97;5.15;;;;;;;;;;5064466;28;20066;-55
2021/10/13 01:07:04;;;;;;;7.03;5.78;;;;;;;;;;5072949;28;20031;-57
2021/10/13 01:09:33;;;;;;;9.10;5.35;;;;;;;;;;5072674;28;20040;-58
2021/10/13 01:12:04;;;;;;;5.25;4.72;;;;;;;;;;5073009;28;20122;-57
2021/10/13 01:14:48;;;;;;;6.60;4.35;;;;;;;;;;5072519;28;20023;-57
2021/10/13 01:17:42;;;;;;;7.28;4.93;;;;;;;;;;5073239;28;20395;-58
2021/10/13 01:20:27;;;;;;;9.52;5.43;;;;;;;;;;5067740;28;20024;-58
2021/10/13 01:23:10;;;;;;;6.22;5.13;;;;;;;;;;5070540;28;20070;-57
2021/10/13 01:25:43;;;;;;;7.95;4.97;;;;;;;;;;5068249;28;20045;-57
2021/10/13 01:28:10;;;;;;;5.40;4.80;;;;;;;;;;5072597;28;20017;-58
2021/10/13 01:30:48;;;;;;;8.80;5.43;;;;;;;;;;5071901;28;20097;-58
2021/10/13 01:33:17;;;;;;;8.75;5.65;;;;;;;;;;5072669;28;20547;-57
2021/10/13 01:35:45;;;;;;;11.18;4.97;;;;;;;;;;5072635;28;20017;-58
2021/10/13 01:38:13;;;;;;;6.55;5.80;;;;;;;;;;5072478;28;20051;-58
2021/10/13 01:40:39;;;;;;;9.95;5.88;;;;;;;;;;5072261;28;20487;-58
2021/10/13 01:43:05;;;;;;;5.90;5.20;;;;;;;;;;5072585;28;20111;-58
2021/10/13 01:45:31;;;;;;;7.70;5.38;;;;;;;;;;5070825;28;20036;-59
2021/10/13 01:47:58;;;;;;;7.03;5.45;;;;;;;;;;5071292;28;20070;-56
2021/10/13 01:50:23;;;;;;;7.13;5.15;;;;;;;;;;5072487;28;20024;-57
2021/10/13 01:52:49;;;;;;;8.13;6.28;;;;;;;;;;5071767;28;20543;-58
2021/10/13 01:55:18;;;;;;;5.93;4.25;;;;;;;;;;5069801;28;20488;-57
2021/10/13 01:57:46;;;;;;;7.68;5.20;;;;;;;;;;5088163;28;20445;-58
2021/10/13 02:00:12;;;;;;;8.80;6.43;;;;;;;;;;5071409;28;20020;-58
2021/10/13 02:02:37;;;;;;;5.18;3.90;;;;;;;;;;5072048;28;20086;-58
2021/10/13 02:05:04;;;;;;;7.20;5.78;;;;;;;;;;5071407;28;20431;-58
2021/10/13 02:07:29;;;;;;;8.35;5.90;;;;;;;;;;5071729;28;20024;-58
2021/10/13 02:09:57;;;;;;;7.93;6.28;;;;;;;;;;5072065;28;20025;-57
2021/10/13 02:12:23;;;;;;;7.82;5.78;;;;;;;;;;5071547;28;20021;-58
2021/10/13 02:14:49;;;;;;;8.65;6.28;;;;;;;;;;5071717;28;20024;-58
2021/10/13 02:17:14;;;;;;;10.75;6.72;;;;;;;;;;5071977;28;20012;-58
2021/10/13 02:19:41;;;;;;;10.02;7.07;;;;;;;;;;5071658;28;20069;-58
2021/10/13 02:22:07;;;;;;;7.20;4.82;;;;;;;;;;5070185;28;20029;-57
2021/10/13 02:24:46;;;;;;;9.10;7.10;;;;;;;;;;5071836;28;20445;-57
2021/10/13 02:27:16;;;;;;;10.70;7.60;;;;;;;;;;5069229;28;20036;-58
2021/10/13 02:29:42;;;;;;;11.38;8.13;;;;;;;;;;5071477;28;20016;-55
2021/10/13 02:32:08;;;;;;;10.82;7.93;;;;;;;;;;5078271;28;20012;-58
2021/10/13 02:34:33;;;;;;;10.63;8.27;;;;;;;;;;5088443;28;20035;-58
2021/10/13 02:36:58;;;;;;;8.80;6.78;;;;;;;;;;5079082;28;20013;-58
2021/10/13 02:39:24;;;;;;;11.65;8.95;;;;;;;;;;5071771;28;20024;-58
2021/10/13 02:41:49;;;;;;;10.52;8.43;;;;;;;;;;5070320;28;20024;-58
2021/10/13 02:44:14;;;;;;;10.52;8.27;;;;;;;;;;5069332;28;20032;-57
2021/10/13 02:46:39;;;;;;;8.50;5.55;;;;;;;;;;5068743;28;20036;-57
2021/10/13 02:49:10;;;;;;;11.38;8.60;;;;;;;;;;5072062;28;20067;-58
2021/10/13 02:51:43;;;;;;;9.75;7.43;;;;;;;;;;5071256;28;20017;-55
2021/10/13 02:54:13;;;;;;;12.93;9.52;;;;;;;;;;5071377;28;20082;-57
2021/10/13 02:56:40;;;;;;;12.50;11.15;;;;;;;;;;5069065;28;20476;-58
2021/10/13 02:59:09;;;;;;;13.38;10.75;;;;;;;;;;5071183;28;20052;-58
2021/10/13 03:01:36;;;;;;;11.80;10.57;;;;;;;;;;5070309;28;20031;-58
2021/10/13 03:04:03;;;;;;;14.68;11.10;;;;;;;;;;5071661;28;20416;-58
2021/10/13 03:06:29;;;;;;;14.55;11.65;;;;;;;;;;5071042;28;20488;-58
2021/10/13 03:08:56;;;;;;;10.32;8.48;;;;;;;;;;5071615;28;20024;-58
2021/10/13 03:11:22;;;;;;;18.50;13.50;;;;;;;;;;5071309;28;20504;-56
2021/10/13 03:13:49;;;;;;;16.73;14.65;;;;;;;;;;5071112;28;20048;-57
2021/10/13 03:16:16;;;;;;;17.20;13.63;;;;;;;;;;5072928;28;20109;-55
2021/10/13 03:18:41;;;;;;;11.95;9.48;;;;;;;;;;5075527;28;20376;-57
2021/10/13 03:21:08;;;;;;;19.42;16.48;;;;;;;;;;5075088;28;20017;-57
2021/10/13 03:23:33;;;;;;;20.88;16.50;;;;;;;;;;5072242;28;20044;-58
2021/10/13 03:26:05;;;;;;;16.10;13.23;;;;;;;;;;5071714;28;20036;-58
2021/10/13 03:28:31;;;;;;;10.50;8.25;;;;;;;;;;5074662;28;20032;-58
2021/10/13 03:30:57;;;;;;;10.82;8.60;;;;;;;;;;5074354;28;20202;-58
2021/10/13 03:33:22;;;;;;;19.40;14.80;;;;;;;;;;5073695;28;20029;-57
2021/10/13 03:35:47;;;;;;;19.02;16.77;;;;;;;;;;5073717;28;20025;-59
2021/10/13 03:38:12;;;;;;;16.80;12.68;;;;;;;;;;5074835;28;20024;-57
2021/10/13 03:40:37;;;;;;;17.85;15.52;;;;;;;;;;5074520;28;20025;-57
2021/10/13 03:43:03;;;;;;;22.45;15.93;;;;;;;;;;5074514;28;20032;-58
2021/10/13 03:45:28;;;;;;;15.43;12.23;;;;;;;;;;5073969;28;20029;-57
2021/10/13 03:47:53;;;;;;;19.92;14.13;;;;;;;;;;5073082;28;20033;-58
2021/10/13 03:50:20;;;;;;;20.80;16.20;;;;;;;;;;5074679;28;20025;-58
2021/10/13 03:52:46;;;;;;;21.23;15.30;;;;;;;;;;5074168;28;20036;-58
2021/10/13 03:55:14;;;;;;;18.98;14.85;;;;;;;;;;5071132;28;20016;-56
2021/10/13 03:57:39;;;;;;;12.80;10.95;;;;;;;;;;5073796;28;20028;-56
2021/10/13 04:00:05;;;;;;;15.95;11.60;;;;;;;;;;5073702;28;20020;-58
2021/10/13 04:02:31;;;;;;;14.43;10.82;;;;;;;;;;5074767;28;20081;-56
2021/10/13 04:04:56;;;;;;;11.38;8.85;;;;;;;;;;5074329;28;20028;-56
2021/10/13 04:07:21;;;;;;;17.95;15.00;;;;;;;;;;5074207;28;20028;-57
2021/10/13 04:09:47;;;;;;;17.58;14.25;;;;;;;;;;5073651;28;20047;-58
2021/10/13 04:12:12;;;;;;;16.23;14.52;;;;;;;;;;5074361;28;20016;-58
2021/10/13 04:14:37;;;;;;;16.02;13.05;;;;;;;;;;5074235;28;20013;-57
2021/10/13 04:17:03;;;;;;;17.23;14.05;;;;;;;;;;5074303;28;20039;-58
2021/10/13 04:19:28;;;;;;;18.20;13.32;;;;;;;;;;5074068;28;20020;-57
2021/10/13 04:21:53;;;;;;;17.02;14.98;;;;;;;;;;5073654;28;20032;-58
2021/10/13 04:24:18;;;;;;;10.15;8.38;;;;;;;;;;5073455;28;20435;-57
2021/10/13 04:26:43;;;;;;;14.27;11.00;;;;;;;;;;5067351;28;20056;-58
2021/10/13 04:29:08;;;;;;;10.45;5.75;;;;;;;;;;5073375;28;20037;-58
2021/10/13 04:31:34;;;;;;;16.85;12.05;;;;;;;;;;5068402;28;20476;-57
2021/10/13 04:33:59;;;;;;;17.88;13.98;;;;;;;;;;5073987;28;20404;-58
2021/10/13 04:36:24;;;;;;;17.42;13.43;;;;;;;;;;5073387;28;20082;-58
2021/10/13 04:38:49;;;;;;;12.98;9.85;;;;;;;;;;5073712;28;20020;-58
2021/10/13 04:41:15;;;;;;;14.75;12.02;;;;;;;;;;5073272;28;20377;-58
2021/10/13 04:43:40;;;;;;;9.32;7.78;;;;;;;;;;5073891;28;20032;-57
2021/10/13 04:46:05;;;;;;;14.85;12.00;;;;;;;;;;5089047;28;20389;-57
2021/10/13 04:48:30;;;;;;;11.52;8.50;;;;;;;;;;5073457;28;20089;-54
2021/10/13 04:50:56;;;;;;;15.25;10.45;;;;;;;;;;5072687;28;20665;-57
2021/10/13 04:53:21;;;;;;;12.43;9.25;;;;;;;;;;5073010;28;20465;-57
2021/10/13 04:55:46;;;;;;;15.30;12.05;;;;;;;;;;5070336;28;20019;-59
2021/10/13 04:58:11;;;;;;;15.77;13.10;;;;;;;;;;5073095;28;20020;-57
2021/10/13 05:00:36;;;;;;;16.88;12.45;;;;;;;;;;5072610;28;20052;-59
2021/10/13 05:03:02;;;;;;;14.65;12.30;;;;;;;;;;5072750;28;20374;-58
2021/10/13 05:05:27;;;;;;;12.88;10.52;;;;;;;;;;5073175;28;20519;-56
2021/10/13 05:07:52;;;;;;;13.25;8.98;;;;;;;;;;5073022;28;20389;-57
2021/10/13 05:10:17;;;;;;;12.95;11.50;;;;;;;;;;5072947;28;20103;-57
2021/10/13 05:12:43;;;;;;;12.68;10.57;;;;;;;;;;5072419;28;20118;-58
2021/10/13 05:15:08;;;;;;;13.18;11.40;;;;;;;;;;5072333;28;20044;-58
2021/10/13 05:17:33;;;;;;;12.55;10.00;;;;;;;;;;5072570;28;20369;-57
2021/10/13 05:19:59;;;;;;;13.52;11.38;;;;;;;;;;5072519;28;20491;-58
2021/10/13 05:22:24;;;;;;;12.90;11.18;;;;;;;;;;5072408;28;20035;-57
2021/10/13 05:24:49;;;;;;;16.88;13.60;;;;;;;;;;5071443;28;20067;-57
2021/10/13 05:27:14;;;;;;;16.45;13.32;;;;;;;;;;5069621;28;20029;-56
2021/10/13 05:29:40;;;;;;;14.80;12.40;;;;;;;;;;5072554;28;20066;-56
2021/10/13 05:32:05;;;;;;;15.05;12.13;;;;;;;;;;5072455;28;20017;-57
2021/10/13 05:34:30;;;;;;;13.35;11.75;;;;;;;;;;5072578;28;20035;-57
2021/10/13 05:36:55;;;;;;;14.65;12.18;;;;;;;;;;5070094;28;20039;-57
2021/10/13 05:39:21;;;;;;;17.20;13.55;;;;;;;;;;5071098;28;20029;-57
2021/10/13 05:41:46;;;;;;;17.17;14.43;;;;;;;;;;5071266;28;20048;-55
2021/10/13 05:44:11;;;;;;;17.00;13.55;;;;;;;;;;5070724;28;20027;-57
2021/10/13 05:46:36;;;;;;;17.23;13.65;;;;;;;;;;5070759;28;20365;-59
2021/10/13 05:49:02;;;;;;;17.75;14.95;;;;;;;;;;5071423;28;20033;-59
2021/10/13 05:51:27;;;;;;;16.42;14.05;;;;;;;;;;5070823;28;20143;-58
2021/10/13 05:53:52;;;;;;;17.95;14.82;;;;;;;;;;5067878;28;20047;-58
2021/10/13 05:56:17;;;;;;;20.55;15.82;;;;;;;;;;5066254;28;20013;-58
2021/10/13 05:58:43;;;;;;;21.98;16.02;;;;;;;;;;5069955;28;20058;-61
2021/10/13 06:01:08;;;;;;;20.85;14.98;;;;;;;;;;5070615;28;20028;-60
2021/10/13 06:03:33;;;;;;;18.40;14.13;;;;;;;;;;5070955;28;20035;-59
2021/10/13 06:05:58;;;;;;;19.02;14.18;;;;;;;;;;5070821;28;20037;-59
2021/10/13 06:08:24;;;;;;;19.42;13.23;;;;;;;;;;5071582;28;20020;-58
2021/10/13 06:10:49;;;;;;;11.77;10.13;;;;;;;;;;5070607;28;20529;-58
2021/10/13 06:13:14;;;;;;;15.85;12.57;;;;;;;;;;5071166;28;20012;-58
2021/10/13 06:15:39;;;;;;;13.63;11.80;;;;;;;;;;5071454;28;20021;-56
2021/10/13 06:18:05;;;;;;;18.75;14.00;;;;;;;;;;5071141;28;20032;-58
2021/10/13 06:20:31;;;;;;;17.75;13.85;;;;;;;;;;5071201;28;20481;-58
2021/10/13 06:22:56;;;;;;;11.98;9.48;;;;;;;;;;5070409;28;20019;-58
2021/10/13 06:25:21;;;;;;;17.88;12.70;;;;;;;;;;5075696;28;20113;-58
2021/10/13 06:27:46;;;;;;;9.13;5.72;;;;;;;;;;5058329;28;20076;-58
2021/10/13 06:30:12;;;;;;;13.48;10.98;;;;;;;;;;5068402;28;20024;-58
2021/10/13 06:32:37;;;;;;;15.60;10.98;;;;;;;;;;5071056;28;20423;-59
2021/10/13 06:35:02;;;;;;;15.07;12.43;;;;;;;;;;5066655;28;20013;-59
2021/10/13 06:37:27;;;;;;;15.45;12.77;;;;;;;;;;5071284;28;20101;-57
2021/10/13 06:39:53;;;;;;;15.82;13.63;;;;;;;;;;5071911;28;20024;-58
2021/10/13 06:42:18;;;;;;;13.52;12.10;;;;;;;;;;5069506;28;20035;-58
2021/10/13 06:44:43;;;;;;;10.60;8.65;;;;;;;;;;5065531;28;20040;-59
2021/10/13 06:47:08;;;;;;;12.93;11.13;;;;;;;;;;5071153;28;20017;-58
2021/10/13 06:49:33;;;;;;;16.50;11.30;;;;;;;;;;5070235;28;20044;-59
2021/10/13 06:51:59;;;;;;;14.90;10.93;;;;;;;;;;5069753;28;20059;-58
2021/10/13 06:54:24;;;;;;;9.93;8.68;;;;;;;;;;5070554;28;20025;-60
2021/10/13 06:56:49;;;;;;;12.23;10.73;;;;;;;;;;5066313;28;20391;-58
2021/10/13 06:59:14;;;;;;;14.65;11.57;;;;;;;;;;5066667;28;20473;-57
2021/10/13 07:01:39;;;;;;;13.73;11.57;;;;;;;;;;5068581;28;20056;-55
2021/10/13 07:04:05;;;;;;;18.58;10.93;;;;;;;;;;5070178;28;20463;-58
2021/10/13 07:06:30;;;;;;;11.38;10.20;;;;;;;;;;5070528;28;20025;-57
2021/10/13 07:08:55;;;;;;;8.80;6.13;;;;;;;;;;5069967;28;20043;-58
2021/10/13 07:11:21;;;;;;;12.45;10.02;;;;;;;;;;5070852;28;20449;-56
2021/10/13 07:13:47;;;;;;;10.27;9.10;;;;;;;;;;5071175;28;20090;-58
2021/10/13 07:16:12;;;;;;;13.02;10.50;;;;;;;;;;5070644;28;20013;-59
2021/10/13 07:18:37;;;;;;;12.18;8.13;;;;;;;;;;5070653;28;20035;-59
2021/10/13 07:21:03;;;;;;;16.13;10.07;;;;;;;;;;5070336;28;20028;-58
2021/10/13 07:23:28;;;;;;;13.30;9.63;;;;;;;;;;5070095;28;20496;-58
2021/10/13 07:25:54;;;;;;;8.30;7.47;;;;;;;;;;5065428;28;20124;-58
2021/10/13 07:28:19;;;;;;;9.70;8.68;;;;;;;;;;5070125;28;20035;-58
2021/10/13 07:30:44;;;;;;;9.20;8.07;;;;;;;;;;5070203;28;20012;-57
2021/10/13 07:33:09;;;;;;;10.65;8.10;;;;;;;;;;5070928;28;20092;-57
2021/10/13 07:35:35;;;;;;;9.35;7.55;;;;;;;;;;5068438;28;20009;-58
2021/10/13 07:38:00;;;;;;;11.48;8.98;;;;;;;;;;5064009;28;20032;-58
2021/10/13 07:40:25;;;;;;;12.00;9.93;;;;;;;;;;5071219;28;20021;-58
2021/10/13 07:42:51;;;;;;;6.25;4.57;;;;;;;;;;5068869;28;20495;-56
2021/10/13 07:45:18;;;;;;;9.05;8.07;;;;;;;;;;5069618;28;20024;-58
2021/10/13 07:47:43;;;;;;;9.45;7.15;;;;;;;;;;5054535;28;20025;-55
2021/10/13 07:50:08;;;;;;;5.93;4.25;;;;;;;;;;5070635;28;20025;-58
2021/10/13 07:52:33;;;;;;;6.05;5.45;;;;;;;;;;5070236;28;20039;-58
2021/10/13 07:54:59;;;;;;;6.68;5.90;;;;;;;;;;5065333;28;20025;-59
2021/10/13 07:57:24;;;;;;;6.25;3.55;;;;;;;;;;5066532;28;20119;-58
2021/10/13 07:59:50;;;;;;;8.50;7.32;;;;;;;;;;5068876;28;20275;-58
2021/10/13 08:02:15;;;;;;;7.63;6.88;;;;;;;;;;5071406;28;20028;-58
2021/10/13 08:04:40;;;;;;;13.57;7.85;;;;;;;;;;5073459;28;20032;-56
2021/10/13 08:07:05;;;;;;;10.48;8.73;;;;;;;;;;5071474;28;20467;-59
2021/10/13 08:09:32;;;;;;;9.00;8.13;;;;;;;;;;5069393;28;20473;-56
2021/10/13 08:11:58;;;;;;;8.70;6.25;;;;;;;;;;5074558;28;20031;-58
2021/10/13 08:14:23;;;;;;;5.50;4.15;;;;;;;;;;5074052;28;20036;-59
2021/10/13 08:16:48;;;;;;;8.77;6.15;;;;;;;;;;5073002;28;20013;-58
2021/10/13 08:19:13;;;;;;;7.70;6.85;;;;;;;;;;5073565;28;20021;-58
2021/10/13 08:21:39;;;;;;;7.47;5.15;;;;;;;;;;5073702;28;20028;-59
2021/10/13 08:24:04;;;;;;;4.28;2.65;;;;;;;;;;5072396;28;20024;-57
2021/10/13 08:26:30;;;;;;;6.43;5.60;;;;;;;;;;5065554;28;20049;-58
2021/10/13 08:28:55;;;;;;;6.63;5.18;;;;;;;;;;5069923;28;20040;-58
2021/10/13 08:31:20;;;;;;;5.57;4.00;;;;;;;;;;5067012;28;20019;-58
2021/10/13 08:33:46;;;;;;;5.72;3.72;;;;;;;;;;5072741;28;20028;-57
2021/10/13 08:36:11;;;;;;;2.63;2.10;;;;;;;;;;5072851;28;20048;-59
2021/10/13 08:38:37;;;;;;;8.13;5.93;;;;;;;;;;5072752;28;20095;-57
2021/10/13 08:41:03;;;;;;;9.63;5.63;;;;;;;;;;5073412;28;20029;-59
2021/10/13 08:43:28;;;;;;;6.88;6.13;;;;;;;;;;5073015;28;20020;-59
2021/10/13 08:45:54;;;;;;;5.05;3.95;;;;;;;;;;5071080;28;20032;-58
2021/10/13 08:48:19;;;;;;;4.43;3.78;;;;;;;;;;5070576;28;20045;-57
2021/10/13 08:50:48;;;;;;;7.50;6.20;;;;;;;;;;5070667;28;20020;-58
2021/10/13 08:53:14;;;;;;;8.55;7.57;;;;;;;;;;5063432;28;20537;-59
2021/10/13 08:55:41;;;;;;;8.07;7.07;;;;;;;;;;5063095;28;20042;-58
2021/10/13 08:58:06;;;;;;;7.28;5.72;;;;;;;;;;5070379;28;20020;-58
2021/10/13 09:00:32;;;;;;;5.40;4.32;;;;;;;;;;5088175;28;20016;-58
2021/10/13 09:02:57;;;;;;;4.80;4.30;;;;;;;;;;5072396;28;20028;-59
2021/10/13 09:05:22;;;;;;;4.65;3.33;;;;;;;;;;5071673;28;20037;-58
2021/10/13 09:07:49;;;;;;;4.40;3.13;;;;;;;;;;5069828;28;20055;-59
2021/10/13 09:10:14;;;;;;;6.53;4.80;;;;;;;;;;5071321;28;20023;-59
2021/10/13 09:12:40;;;;;;;6.90;5.18;;;;;;;;;;5072243;28;20013;-60
2021/10/13 09:15:10;;;;;;;2.83;1.75;;;;;;;;;;5070921;28;20486;-58
2021/10/13 09:17:53;;;;;;;3.90;2.08;;;;;;;;;;5071788;28;20039;-58
2021/10/13 09:20:20;;;;;;;3.95;3.63;;;;;;;;;;5072627;28;20017;-58
2021/10/13 09:22:57;;;;;;;3.95;3.28;;;;;;;;;;5071215;28;20469;-58
2021/10/13 09:25:22;;;;;;;3.80;2.35;;;;;;;;;;5054313;28;20066;-58
2021/10/13 09:27:48;;;;;;;3.90;3.45;;;;;;;;;;5070959;28;20028;-58
2021/10/13 09:30:13;;;;;;;2.53;2.22;;;;;;;;;;5066506;28;20028;-58
2021/10/13 09:32:42;;;;;;;6.80;3.65;;;;;;;;;;5072045;28;20027;-59
2021/10/13 09:35:07;;;;;;;4.85;2.20;;;;;;;;;;5066911;28;20036;-58
2021/10/13 09:37:49;;;;;;;3.80;3.28;;;;;;;;;;5074514;28;20051;-57
2021/10/13 09:40:24;;;;;;;2.15;1.67;;;;;;;;;;5071297;28;20131;-58
2021/10/13 09:42:49;;;;;;;1.67;1.42;;;;;;;;;;5069323;28;20030;-55
2021/10/13 09:45:15;;;;;;;2.47;2.28;;;;;;;;;;5071100;28;20097;-57
2021/10/13 09:47:40;;;;;;;2.05;1.50;;;;;;;;;;5068502;28;20029;-56
2021/10/13 09:50:10;;;;;;;1.73;1.25;;;;;;;;;;5061878;28;20112;-59
2021/10/13 09:52:35;;;;;;;4.03;2.30;;;;;;;;;;5070462;28;20020;-58
2021/10/13 09:55:00;;;;;;;1.45;0.80;;;;;;;;;;5068902;28;20047;-57
2021/10/13 09:57:30;;;;;;;2.35;1.40;;;;;;;;;;5067669;28;20039;-58
2021/10/13 10:00:12;;;;;;;2.05;1.50;;;;;;;;;;5070040;28;20024;-57
2021/10/13 10:02:38;;;;;;;1.65;0.98;;;;;;;;;;5070808;28;20024;-57
2021/10/13 10:05:06;;;;;;;1.80;1.33;;;;;;;;;;5062328;28;20047;-57
2021/10/13 10:07:31;;;;;;;2.95;1.20;;;;;;;;;;5070262;28;20117;-53
2021/10/13 10:10:07;;;;;;;1.98;1.08;;;;;;;;;;5069645;28;20078;-58
2021/10/13 10:13:05;;;;;;;1.00;0.90;;;;;;;;;;5070018;28;20433;-57
2021/10/13 10:15:30;;;;;;;1.20;0.57;;;;;;;;;;5047335;28;20456;-58
2021/10/13 10:17:56;;;;;;;1.45;0.80;;;;;;;;;;5074830;28;20032;-58
2021/10/13 10:20:40;;;;;;;0.63;0.35;;;;;;;;;;5060848;28;20033;-58
2021/10/13 10:23:25;;;;;;;1.48;0.75;;;;;;;;;;5070917;28;20474;-59
2021/10/13 10:25:51;;;;;;;0.68;0.40;;;;;;;;;;5063373;28;20117;-58
2021/10/13 10:28:35;;;;;;;0.70;0.40;;;;;;;;;;5061044;28;20524;-59
2021/10/13 10:31:18;;;;;;;2.45;0.88;;;;;;;;;;5068668;28;20448;-58
2021/10/13 10:33:50;;;;;;;1.33;0.52;;;;;;;;;;5057979;28;20453;-59
2021/10/13 10:36:15;;;;;;;2.53;0.68;;;;;;;;;;5071870;28;20082;-59
2021/10/13 10:38:47;;;;;;;0.80;0.52;;;;;;;;;;5070568;28;20493;-59
2021/10/13 10:41:13;;;;;;;1.88;0.40;;;;;;;;;;5069496;28;20035;-58
2021/10/13 10:43:38;;;;;;;2.95;0.57;;;;;;;;;;5071142;28;20028;-58
2021/10/13 10:46:04;;;;;;;0.95;0.60;;;;;;;;;;5069852;28;20124;-57
2021/10/13 10:48:43;;;;;;;2.55;1.02;;;;;;;;;;5067949;28;20043;-58
2021/10/13 10:51:08;;;;;;;2.05;0.55;;;;;;;;;;5059446;28;20481;-58
2021/10/13 10:53:36;;;;;;;1.48;0.40;;;;;;;;;;5070218;28;20103;-57
2021/10/13 10:56:08;;;;;;;0.35;0.25;;;;;;;;;;5061132;28;20022;-57
2021/10/13 10:58:33;;;;;;;0.88;0.32;;;;;;;;;;5069451;28;20029;-56
2021/10/13 11:01:07;;;;;;;1.73;0.40;;;;;;;;;;5070395;28;20028;-57
2021/10/13 11:03:36;;;;;;;1.95;0.40;;;;;;;;;;5070714;28;20036;-58
2021/10/13 11:06:22;;;;;;;2.28;0.35;;;;;;;;;;5068025;28;20032;-58
2021/10/13 11:08:56;;;;;;;1.25;0.50;;;;;;;;;;5065745;28;20033;-57
2021/10/13 11:11:23;;;;;;;0.77;0.30;;;;;;;;;;5059514;28;20020;-58
2021/10/13 11:13:54;;;;;;;1.92;0.65;;;;;;;;;;5070839;28;20073;-58
2021/10/13 11:16:19;;;;;;;1.98;0.20;;;;;;;;;;5069717;28;20028;-57
2021/10/13 11:18:44;;;;;;;0.90;0.35;;;;;;;;;;5069830;28;20032;-57
2021/10/13 11:21:10;;;;;;;3.15;0.30;;;;;;;;;;5071027;28;20028;-56
2021/10/13 11:23:35;;;;;;;0.25;0.20;;;;;;;;;;5069875;28;20121;-58
2021/10/13 11:26:01;;;;;;;0.88;0.35;;;;;;;;;;5066071;28;20466;-57
2021/10/13 11:28:32;;;;;;;0.77;0.30;;;;;;;;;;5066685;28;20481;-57
2021/10/13 11:31:02;;;;;;;1.63;0.35;;;;;;;;;;5068687;28;20033;-57
2021/10/13 11:33:27;;;;;;;1.40;0.32;;;;;;;;;;5068931;28;20028;-57
2021/10/13 11:35:58;;;;;;;1.13;0.40;;;;;;;;;;5068334;28;20024;-54
2021/10/13 11:38:23;;;;;;;1.58;0.30;;;;;;;;;;5072969;28;20021;-57
2021/10/13 11:40:48;;;;;;;0.75;0.40;;;;;;;;;;5066269;28;20534;-58
2021/10/13 11:43:17;;;;;;;2.30;0.40;;;;;;;;;;5063902;28;20439;-58
2021/10/13 11:45:46;;;;;;;1.00;0.40;;;;;;;;;;5073473;28;20024;-55
2021/10/13 11:48:12;;;;;;;1.75;0.50;;;;;;;;;;5067117;28;20025;-59
2021/10/13 11:50:39;;;;;;;2.05;0.30;;;;;;;;;;5073814;28;20055;-60
2021/10/13 11:53:04;;;;;;;0.57;0.40;;;;;;;;;;5073548;28;20103;-59
2021/10/13 11:55:31;;;;;;;1.15;0.28;;;;;;;;;;5068418;28;20437;-56
2021/10/13 11:57:57;;;;;;;0.20;0.20;;;;;;;;;;5072508;28;20025;-58
2021/10/13 12:00:23;;;;;;;0.82;0.20;;;;;;;;;;5071249;28;20024;-57
2021/10/13 12:03:18;;;;;;;0.35;0.20;;;;;;;;;;5073957;28;20546;-59
2021/10/13 12:05:51;;;;;;;1.15;0.20;;;;;;;;;;5059638;28;20032;-59
2021/10/13 12:08:17;;;;;;;0.85;0.20;;;;;;;;;;5073984;28;20119;-58
2021/10/13 12:10:45;;;;;;;1.05;0.30;;;;;;;;;;5073669;28;20048;-58
2021/10/13 12:13:12;;;;;;;0.55;0.28;;;;;;;;;;5075375;28;20103;-55
2021/10/13 12:15:39;;;;;;;0.88;0.17;;;;;;;;;;5072210;28;20024;-59
2021/10/13 12:18:15;;;;;;;1.65;0.43;;;;;;;;;;5071779;28;20039;-58
2021/10/13 12:20:41;;;;;;;0.45;0.20;;;;;;;;;;5073392;28;20028;-57
2021/10/13 12:23:14;;;;;;;0.65;0.25;;;;;;;;;;5073217;28;20032;-57
2021/10/13 12:25:40;;;;;;;1.88;0.40;;;;;;;;;;5067241;28;20059;-58
2021/10/13 12:28:22;;;;;;;0.85;0.30;;;;;;;;;;5071791;28;20029;-57
2021/10/13 12:30:55;;;;;;;1.67;0.47;;;;;;;;;;5072412;28;20015;-58
2021/10/13 12:33:21;;;;;;;2.70;0.40;;;;;;;;;;5071604;28;20016;-59
2021/10/13 12:35:46;;;;;;;0.20;0.20;;;;;;;;;;5076063;28;20119;-58
2021/10/13 12:38:13;;;;;;;1.95;0.45;;;;;;;;;;5073225;28;20028;-57
2021/10/13 12:40:39;;;;;;;0.28;0.13;;;;;;;;;;5072811;28;20451;-57
2021/10/13 12:43:20;;;;;;;1.02;0.30;;;;;;;;;;5068887;28;20455;-59
2021/10/13 12:45:46;;;;;;;1.45;0.20;;;;;;;;;;5071672;28;20040;-56
2021/10/13 12:48:23;;;;;;;0.60;0.20;;;;;;;;;;5071635;28;20055;-58
2021/10/13 12:51:05;;;;;;;1.98;0.25;;;;;;;;;;5072753;28;20008;-60
2021/10/13 12:53:30;;;;;;;2.40;0.30;;;;;;;;;;5073538;28;20020;-58
2021/10/13 12:55:56;;;;;;;0.57;0.20;;;;;;;;;;5064928;28;20024;-59
2021/10/13 12:58:27;;;;;;;0.30;0.20;;;;;;;;;;5070068;28;20032;-58
2021/10/13 13:00:53;;;;;;;0.60;0.10;;;;;;;;;;5067480;28;20464;-59
2021/10/13 13:03:18;;;;;;;2.28;0.20;;;;;;;;;;5071992;28;20024;-58
2021/10/13 13:05:43;;;;;;;0.80;0.10;;;;;;;;;;5070909;28;20029;-58
2021/10/13 13:08:08;;;;;;;1.10;0.35;;;;;;;;;;5071995;28;20488;-58
2021/10/13 13:10:33;;;;;;;1.10;0.30;;;;;;;;;;5071710;28;20107;-57
2021/10/13 13:13:01;;;;;;;0.70;0.30;;;;;;;;;;5073151;28;20027;-59
2021/10/13 13:15:27;;;;;;;1.27;0.40;;;;;;;;;;5071423;28;20350;-57
2021/10/13 13:17:52;;;;;;;0.28;0.13;;;;;;;;;;5070650;28;20128;-58
2021/10/13 13:20:17;;;;;;;0.60;0.22;;;;;;;;;;5072588;28;20369;-58
2021/10/13 13:22:42;;;;;;;0.85;0.10;;;;;;;;;;5071342;28;20542;-59
2021/10/13 13:25:08;;;;;;;2.50;0.22;;;;;;;;;;5080536;28;20211;-57
2021/10/13 13:27:33;;;;;;;1.05;0.17;;;;;;;;;;5080800;28;20866;-58
2021/10/13 13:29:58;;;;;;;0.75;0.17;;;;;;;;;;5075239;28;20020;-58
2021/10/13 13:32:24;;;;;;;0.40;0.13;;;;;;;;;;5070395;28;20036;-57
2021/10/13 13:34:49;;;;;;;0.30;0.10;;;;;;;;;;5071573;28;20032;-60
2021/10/13 13:37:14;;;;;;;1.15;0.10;;;;;;;;;;5071269;28;20310;-58
2021/10/13 13:39:39;;;;;;;1.13;0.30;;;;;;;;;;5072155;28;20020;-55
2021/10/13 13:42:04;;;;;;;1.17;0.20;;;;;;;;;;5070139;28;20472;-58
2021/10/13 13:44:30;;;;;;;0.70;0.13;;;;;;;;;;5071464;28;20081;-56
2021/10/13 13:46:55;;;;;;;0.85;0.13;;;;;;;;;;5072026;28;20017;-59
2021/10/13 13:49:20;;;;;;;0.93;0.20;;;;;;;;;;5071853;28;20023;-57
2021/10/13 13:51:46;;;;;;;2.00;0.10;;;;;;;;;;5065393;28;20016;-59
2021/10/13 13:54:12;;;;;;;0.50;0.30;;;;;;;;;;5069692;28;20472;-59
2021/10/13 13:56:38;;;;;;;1.35;0.30;;;;;;;;;;5057332;28;20013;-59
2021/10/13 13:59:03;;;;;;;1.30;0.20;;;;;;;;;;5056787;28;20040;-59
2021/10/13 14:01:28;;;;;;;1.05;0.30;;;;;;;;;;5089920;28;20061;-57
2021/10/13 14:03:53;;;;;;;0.57;0.17;;;;;;;;;;5071512;28;20040;-55
2021/10/13 14:06:18;;;;;;;0.57;0.20;;;;;;;;;;5071974;28;20060;-56
2021/10/13 14:08:44;;;;;;;1.60;0.22;;;;;;;;;;5071269;28;20135;-56
2021/10/13 14:11:09;;;;;;;1.85;0.30;;;;;;;;;;5071767;28;20126;-54
2021/10/13 14:13:34;;;;;;;1.23;0.20;;;;;;;;;;5070485;28;20485;-58
2021/10/13 14:15:59;;;;;;;2.53;0.75;;;;;;;;;;5071487;28;20103;-59
2021/10/13 14:18:24;;;;;;;0.50;0.10;;;;;;;;;;5071100;28;20476;-59
2021/10/13 14:20:50;;;;;;;1.02;0.20;;;;;;;;;;5071647;28;20048;-59
2021/10/13 14:23:15;;;;;;;1.35;0.40;;;;;;;;;;5069528;28;20032;-58
2021/10/13 14:25:40;;;;;;;1.30;0.30;;;;;;;;;;5066449;28;20127;-58
2021/10/13 14:28:07;;;;;;;0.40;0.22;;;;;;;;;;5066039;28;20037;-58
2021/10/13 14:30:32;;;;;;;0.98;0.17;;;;;;;;;;5070658;28;20082;-59
2021/10/13 14:32:58;;;;;;;1.58;0.20;;;;;;;;;;5070553;28;20024;-59
2021/10/13 14:35:24;;;;;;;1.45;0.20;;;;;;;;;;5067596;28;20016;-57